createdAt,value
2022-10-17T00:01:01.930Z,8.85
2022-10-17T00:03:28.639Z,9.40
2022-10-17T00:05:55.573Z,8.20
2022-10-17T00:08:22.404Z,8.52
2022-10-17T00:10:59.120Z,8.82
2022-10-17T00:13:26.722Z,6.47
2022-10-17T00:15:53.677Z,8.90
2022-10-17T00:18:20.634Z,8.73
2022-10-17T00:20:47.336Z,5.97
2022-10-17T00:23:14.077Z,8.45
2022-10-17T00:25:40.758Z,9.20
2022-10-17T00:28:12.434Z,6.20
2022-10-17T00:30:39.678Z,14.75
2022-10-17T00:33:06.884Z,7.13
2022-10-17T00:35:33.600Z,10.80
2022-10-17T00:38:00.285Z,9.48
2022-10-17T00:40:27.051Z,7.35
2022-10-17T00:42:53.789Z,8.43
2022-10-17T00:45:31.427Z,9.68
2022-10-17T00:48:08.408Z,8.40
2022-10-17T00:50:39.178Z,11.05
2022-10-17T00:53:07.976Z,7.63
2022-10-17T00:55:44.433Z,9.45
2022-10-17T00:58:11.393Z,9.15
2022-10-17T01:00:38.258Z,8.93
2022-10-17T01:03:05.152Z,8.80
2022-10-17T01:05:32.115Z,9.68
2022-10-17T01:07:58.894Z,7.32
2022-10-17T01:10:50.302Z,6.88
2022-10-17T01:13:31.164Z,8.55
2022-10-17T01:16:17.000Z,9.38
2022-10-17T01:19:01.827Z,8.82
2022-10-17T01:21:51.653Z,8.27
2022-10-17T01:24:33.972Z,10.15
2022-10-17T01:27:52.560Z,12.60
2022-10-17T01:30:50.244Z,7.70
2022-10-17T01:33:57.583Z,10.20
2022-10-17T01:36:57.054Z,8.48
2022-10-17T01:39:41.656Z,6.60
2022-10-17T01:42:27.328Z,6.95
2022-10-17T01:45:16.970Z,8.00
2022-10-17T01:47:46.310Z,9.57
2022-10-17T01:50:24.282Z,10.65
2022-10-17T01:53:01.560Z,8.30
2022-10-17T01:55:36.324Z,9.90
2022-10-17T01:58:25.534Z,7.88
2022-10-17T02:00:53.787Z,9.07
2022-10-17T02:03:22.221Z,9.70
2022-10-17T02:05:49.134Z,7.75
2022-10-17T02:08:39.563Z,8.80
2022-10-17T02:11:18.818Z,7.93
2022-10-17T02:14:56.537Z,9.73
2022-10-17T02:18:05.147Z,13.85
2022-10-17T02:20:50.735Z,8.57
2022-10-17T02:23:33.909Z,8.73
2022-10-17T02:26:09.684Z,9.05
2022-10-17T02:28:48.026Z,9.40
2022-10-17T02:31:21.282Z,9.45
2022-10-17T02:33:59.055Z,9.32
2022-10-17T02:36:33.973Z,11.55
2022-10-17T02:39:03.641Z,9.10
2022-10-17T02:41:31.979Z,11.70
2022-10-17T02:44:01.639Z,9.43
2022-10-17T02:46:30.505Z,8.77
2022-10-17T02:49:18.769Z,12.07
2022-10-17T02:52:13.831Z,9.57
2022-10-17T02:54:51.588Z,11.57
2022-10-17T02:57:29.670Z,13.35
2022-10-17T02:59:59.592Z,11.07
2022-10-17T03:02:26.905Z,11.90
2022-10-17T03:04:53.868Z,11.65
2022-10-17T03:07:20.568Z,10.73
2022-10-17T03:09:47.250Z,11.63
2022-10-17T03:12:13.959Z,11.35
2022-10-17T03:14:40.640Z,11.18
2022-10-17T03:17:07.332Z,10.85
2022-10-17T03:19:34.030Z,7.97
2022-10-17T03:22:00.830Z,8.45
2022-10-17T03:24:27.528Z,8.52
2022-10-17T03:26:54.208Z,8.63
2022-10-17T03:29:20.921Z,9.95
2022-10-17T03:31:47.667Z,9.57
2022-10-17T03:34:16.650Z,8.05
2022-10-17T03:36:43.594Z,9.80
2022-10-17T03:39:10.721Z,8.40
2022-10-17T03:41:37.416Z,8.57
2022-10-17T03:44:04.423Z,12.02
2022-10-17T03:46:31.190Z,8.63
2022-10-17T03:48:57.896Z,9.65
2022-10-17T03:51:24.672Z,8.18
2022-10-17T03:53:51.586Z,10.23
2022-10-17T03:56:22.737Z,11.05
2022-10-17T03:58:49.806Z,9.35
2022-10-17T04:01:18.580Z,10.75
2022-10-17T04:03:53.285Z,12.25
2022-10-17T04:06:21.075Z,9.10
2022-10-17T04:08:48.661Z,16.13
2022-10-17T04:11:19.492Z,11.48
2022-10-17T04:13:46.517Z,9.43
2022-10-17T04:16:17.335Z,9.02
2022-10-17T04:18:44.615Z,10.50
2022-10-17T04:21:12.509Z,9.10
2022-10-17T04:23:40.058Z,11.52
2022-10-17T04:26:07.055Z,10.55
2022-10-17T04:28:34.375Z,11.73
2022-10-17T04:31:07.854Z,11.27
2022-10-17T04:33:35.635Z,11.52
2022-10-17T04:36:06.438Z,11.27
2022-10-17T04:38:33.529Z,10.52
2022-10-17T04:41:03.165Z,11.13
2022-10-17T04:43:40.159Z,11.70
2022-10-17T04:46:10.674Z,9.30
2022-10-17T04:48:38.567Z,11.57
2022-10-17T04:51:10.994Z,9.70
2022-10-17T04:53:42.037Z,11.85
2022-10-17T04:56:15.578Z,8.57
2022-10-17T04:58:43.841Z,10.77
2022-10-17T05:01:22.762Z,7.45
2022-10-17T05:03:50.072Z,8.38
2022-10-17T05:06:29.584Z,9.93
2022-10-17T05:08:57.909Z,15.25
2022-10-17T05:11:27.926Z,12.75
2022-10-17T05:13:57.845Z,10.30
2022-10-17T05:16:26.676Z,13.32
2022-10-17T05:18:56.534Z,9.00
2022-10-17T05:21:26.072Z,11.85
2022-10-17T05:23:53.056Z,10.75
2022-10-17T05:26:21.141Z,11.77
2022-10-17T05:28:47.863Z,8.25
2022-10-17T05:31:15.422Z,8.18
2022-10-17T05:33:42.161Z,9.85
2022-10-17T05:36:09.052Z,11.45
2022-10-17T05:38:35.802Z,12.50
2022-10-17T06:01:12.780Z,14.43
2022-10-17T06:03:39.888Z,12.57
2022-10-17T06:06:09.621Z,12.85
2022-10-17T06:08:37.001Z,11.18
2022-10-17T06:11:07.497Z,12.02
2022-10-17T06:13:36.904Z,12.93
2022-10-17T06:16:03.794Z,13.23
2022-10-17T06:18:30.527Z,13.77
2022-10-17T06:21:10.895Z,12.27
2022-10-17T06:23:37.901Z,11.05
2022-10-17T06:26:06.409Z,12.85
2022-10-17T06:28:33.724Z,9.18
2022-10-17T06:31:07.166Z,9.43
2022-10-17T06:33:34.752Z,10.48
2022-10-17T06:36:02.133Z,12.38
2022-10-17T06:38:29.031Z,13.30
2022-10-17T06:41:09.949Z,10.73
2022-10-17T06:43:38.046Z,11.65
2022-10-17T06:46:05.952Z,9.93
2022-10-17T06:48:33.189Z,11.75
2022-10-17T06:51:01.364Z,12.95
2022-10-17T06:53:29.610Z,9.48
2022-10-17T06:56:01.150Z,9.88
2022-10-17T06:58:30.037Z,14.23
2022-10-17T07:01:02.402Z,12.55
2022-10-17T07:03:29.913Z,11.05
2022-10-17T07:05:57.939Z,10.98
2022-10-17T07:08:25.501Z,8.95
2022-10-17T07:10:52.764Z,8.18
2022-10-17T07:13:19.922Z,8.38
2022-10-17T07:15:47.213Z,7.97
2022-10-17T07:18:14.382Z,7.72
2022-10-17T07:20:41.259Z,7.13
2022-10-17T07:23:08.071Z,9.20
2022-10-17T07:25:37.820Z,7.15
2022-10-17T07:28:06.861Z,9.93
2022-10-17T07:30:33.677Z,8.30
2022-10-17T07:33:00.367Z,7.80
2022-10-17T07:35:27.079Z,6.50
2022-10-17T07:37:53.811Z,5.72
2022-10-17T07:40:20.585Z,9.02
2022-10-17T07:42:47.305Z,9.57
2022-10-17T07:45:15.542Z,7.68
2022-10-17T07:47:42.323Z,8.95
2022-10-17T07:50:09.473Z,6.07
2022-10-17T07:52:36.216Z,5.20
2022-10-17T07:55:03.045Z,7.05
2022-10-17T07:57:29.713Z,9.55
2022-10-17T07:59:56.607Z,8.38
2022-10-17T08:02:26.339Z,5.88
2022-10-17T08:04:53.822Z,7.97
2022-10-17T08:07:25.511Z,5.13
2022-10-17T08:09:55.280Z,8.45
2022-10-17T08:12:22.147Z,4.88
2022-10-17T08:14:49.070Z,8.93
2022-10-17T08:17:15.761Z,5.80
2022-10-17T08:19:42.490Z,4.03
2022-10-17T08:22:09.498Z,3.67
2022-10-17T08:24:36.396Z,4.32
2022-10-17T08:27:03.875Z,10.85
2022-10-17T08:29:32.749Z,5.60
2022-10-17T08:32:01.223Z,5.22
2022-10-17T08:34:29.187Z,4.50
2022-10-17T08:36:55.871Z,7.60
2022-10-17T08:39:22.670Z,5.78
2022-10-17T08:42:20.371Z,7.65
2022-10-17T08:45:15.029Z,7.85
2022-10-17T08:47:49.653Z,5.25
2022-10-17T08:50:42.843Z,5.30
2022-10-17T08:53:33.431Z,4.20
2022-10-17T08:56:47.945Z,7.13
2022-10-17T08:59:21.900Z,5.10
2022-10-17T09:01:57.520Z,6.55
2022-10-17T09:04:57.328Z,4.28
2022-10-17T09:07:48.620Z,8.30
2022-10-17T09:10:36.145Z,5.07
2022-10-17T09:13:33.983Z,10.43
2022-10-17T09:16:23.153Z,6.28
2022-10-17T09:19:18.496Z,7.82
2022-10-17T09:22:01.032Z,6.45
2022-10-17T09:24:41.315Z,6.93
2022-10-17T09:27:26.778Z,5.72
2022-10-17T09:30:26.865Z,6.05
2022-10-17T09:33:00.580Z,5.85
2022-10-17T09:35:30.146Z,6.25
2022-10-17T09:37:57.981Z,7.95
2022-10-17T09:40:33.105Z,4.88
2022-10-17T09:43:02.914Z,6.53
2022-10-17T09:45:33.611Z,8.43
2022-10-17T09:48:24.389Z,3.77
2022-10-17T09:50:57.925Z,6.35
2022-10-17T09:53:40.113Z,3.92
2022-10-17T09:56:17.440Z,6.53
2022-10-17T09:58:49.985Z,5.60
2022-10-17T10:01:31.155Z,4.88
2022-10-17T10:04:16.573Z,4.43
2022-10-17T10:07:05.835Z,12.02
2022-10-17T10:09:36.894Z,3.80
2022-10-17T10:12:20.356Z,4.00
2022-10-17T10:14:47.913Z,4.30
2022-10-17T10:17:41.828Z,5.20
2022-10-17T10:20:33.126Z,6.50
2022-10-17T10:23:13.411Z,4.57
2022-10-17T10:25:57.362Z,7.30
2022-10-17T10:28:34.773Z,6.32
2022-10-17T10:31:07.282Z,4.80
2022-10-17T10:33:41.692Z,6.18
2022-10-17T10:36:09.071Z,6.00
2022-10-17T10:38:39.315Z,7.35
2022-10-17T10:41:09.722Z,8.55
2022-10-17T10:43:45.095Z,5.55
2022-10-17T10:46:23.211Z,5.05
2022-10-17T10:48:58.465Z,2.67
2022-10-17T10:51:42.271Z,3.92
2022-10-17T10:54:22.203Z,4.93
2022-10-17T10:57:00.153Z,5.88
2022-10-17T11:00:09.234Z,3.47
2022-10-17T11:02:49.850Z,4.63
2022-10-17T11:05:41.804Z,5.88
2022-10-17T11:08:23.757Z,3.90
2022-10-17T11:11:26.105Z,8.20
2022-10-17T11:14:19.756Z,7.57
2022-10-17T11:16:56.237Z,5.10
2022-10-17T11:19:36.534Z,10.00
2022-10-17T11:22:18.039Z,3.90
2022-10-17T11:25:05.251Z,5.40
2022-10-17T11:27:33.942Z,4.43
2022-10-17T11:30:01.099Z,4.88
2022-10-17T11:32:53.990Z,5.90
2022-10-17T11:35:34.196Z,4.18
2022-10-17T11:38:38.168Z,5.55
2022-10-17T11:41:06.679Z,15.50
2022-10-17T11:43:54.752Z,5.57
2022-10-17T11:46:28.330Z,8.95
2022-10-17T11:49:17.449Z,5.68
2022-10-17T11:52:03.660Z,7.18
2022-10-17T11:54:38.889Z,5.68
2022-10-17T11:57:56.515Z,5.60
2022-10-17T12:00:56.750Z,6.85
2022-10-17T12:03:35.016Z,9.43
2022-10-17T12:06:31.923Z,6.20
2022-10-17T12:09:38.386Z,7.22
2022-10-17T12:12:05.484Z,6.70
2022-10-17T12:14:43.275Z,6.75
2022-10-17T12:17:38.988Z,13.20
2022-10-17T12:20:21.337Z,8.57
2022-10-17T12:22:51.287Z,16.17
2022-10-17T12:25:32.619Z,15.68
2022-10-17T12:28:43.845Z,13.45
2022-10-17T12:31:29.613Z,7.80
2022-10-17T12:34:04.944Z,6.05
2022-10-17T12:36:31.547Z,6.22
2022-10-17T12:39:03.986Z,9.88
2022-10-17T12:41:39.785Z,10.45
2022-10-17T12:44:21.301Z,7.70
2022-10-17T12:46:51.986Z,3.78
2022-10-17T12:49:45.505Z,6.97
2022-10-17T12:52:31.902Z,5.43
2022-10-17T12:55:14.001Z,5.10
2022-10-17T12:57:55.380Z,6.55
2022-10-17T13:00:37.866Z,5.93
2022-10-17T13:03:33.894Z,4.70
2022-10-17T13:06:06.577Z,6.00
2022-10-17T13:08:41.208Z,7.07
2022-10-17T13:11:09.168Z,8.00
2022-10-17T13:13:52.572Z,11.18
2022-10-17T13:16:33.186Z,5.75
2022-10-17T13:19:01.925Z,5.47
2022-10-17T13:21:28.976Z,9.23
2022-10-17T13:23:56.261Z,6.22
2022-10-17T13:26:28.584Z,6.72
2022-10-17T13:29:14.180Z,7.50
2022-10-17T13:31:44.125Z,8.30
2022-10-17T13:34:19.175Z,5.68
2022-10-17T13:36:56.627Z,4.40
2022-10-17T13:39:45.211Z,9.40
2022-10-17T13:42:40.628Z,7.05
2022-10-17T13:45:30.441Z,5.60
2022-10-17T13:48:01.975Z,11.35
2022-10-17T13:53:33.420Z,8.10
2022-10-17T14:01:29.285Z,11.55
2022-10-17T14:04:07.958Z,6.47
2022-10-17T14:06:45.167Z,8.88
2022-10-17T14:09:26.466Z,6.72
2022-10-17T14:12:16.452Z,5.88
2022-10-17T14:17:38.510Z,6.45
2022-10-17T14:20:40.863Z,4.03
2022-10-17T14:23:20.971Z,8.27
2022-10-17T14:25:42.885Z,7.72
2022-10-17T14:28:13.760Z,8.52
2022-10-17T14:30:56.696Z,14.48
2022-10-17T14:33:30.017Z,5.25
2022-10-17T14:35:59.548Z,6.72
2022-10-17T14:38:27.984Z,9.35
2022-10-17T14:41:37.442Z,6.38
2022-10-17T14:44:02.388Z,7.35
2022-10-17T14:46:29.329Z,6.28
2022-10-17T14:49:14.273Z,7.00
2022-10-17T14:51:50.671Z,7.45
2022-10-17T14:54:32.549Z,5.80
2022-10-17T14:56:59.245Z,10.68
2022-10-17T14:59:52.075Z,6.93
2022-10-17T15:02:13.592Z,9.15
2022-10-17T15:04:40.626Z,7.57
2022-10-17T15:07:07.459Z,7.53
2022-10-17T15:09:34.151Z,8.75
2022-10-17T15:12:03.769Z,7.75
2022-10-17T15:14:30.689Z,8.45
2022-10-17T15:16:57.492Z,6.88
2022-10-17T15:19:24.192Z,7.35
2022-10-17T15:21:50.959Z,7.63
2022-10-17T15:24:17.671Z,8.10
2022-10-17T15:26:44.786Z,9.43
2022-10-17T15:29:16.011Z,5.35
2022-10-17T15:31:42.777Z,10.00
2022-10-17T15:34:09.512Z,9.88
2022-10-17T15:36:49.353Z,10.48
2022-10-17T15:39:16.628Z,8.43
2022-10-17T15:41:43.977Z,8.68
2022-10-17T15:44:10.977Z,7.18
2022-10-17T15:46:41.174Z,9.60
2022-10-17T15:49:14.000Z,8.63
2022-10-17T15:51:42.155Z,8.80
2022-10-17T15:54:09.329Z,8.68
2022-10-17T15:56:42.560Z,9.32
2022-10-17T15:59:20.097Z,11.88
2022-10-17T16:01:48.563Z,9.10
2022-10-17T16:04:15.826Z,8.50
2022-10-17T16:06:43.523Z,7.05
2022-10-17T16:09:10.343Z,6.93
2022-10-17T16:11:42.043Z,7.88
2022-10-17T16:16:43.646Z,4.78
2022-10-17T16:19:10.371Z,6.93
2022-10-17T16:21:40.417Z,8.85
2022-10-17T16:24:11.933Z,7.32
2022-10-17T16:26:41.647Z,6.75
2022-10-17T16:29:09.921Z,4.00
2022-10-17T16:31:41.560Z,7.28
2022-10-17T16:34:09.954Z,7.57
2022-10-17T16:36:36.710Z,5.93
2022-10-17T16:39:03.489Z,8.48
2022-10-17T16:41:34.713Z,10.73
2022-10-17T16:44:04.775Z,7.35
2022-10-17T16:46:33.257Z,8.82
2022-10-17T16:49:00.145Z,5.75
2022-10-17T16:51:29.026Z,8.52
2022-10-17T16:53:56.943Z,8.18
2022-10-17T16:56:24.844Z,11.77
2022-10-17T16:58:51.814Z,6.68
2022-10-17T17:01:23.024Z,8.32
2022-10-17T17:03:51.206Z,8.82
2022-10-17T17:06:26.280Z,7.55
2022-10-17T17:08:54.475Z,11.07
2022-10-17T17:11:24.547Z,7.38
2022-10-17T17:13:51.520Z,7.97
2022-10-17T17:16:21.487Z,8.18
2022-10-17T17:18:51.325Z,12.63
2022-10-17T17:21:18.065Z,8.38
2022-10-17T17:23:45.036Z,12.32
2022-10-17T17:26:19.064Z,8.32
2022-10-17T17:28:46.804Z,8.13
2022-10-17T17:31:22.136Z,8.63
2022-10-17T17:33:50.682Z,6.47
2022-10-17T17:36:21.382Z,8.20
2022-10-17T17:38:49.242Z,6.85
2022-10-17T17:41:18.860Z,7.25
2022-10-17T17:43:47.371Z,8.45
2022-10-17T17:46:18.023Z,6.38
2022-10-17T17:48:46.795Z,7.72
2022-10-17T17:51:28.429Z,6.05
2022-10-17T17:53:57.238Z,5.25
2022-10-17T17:56:28.348Z,6.68
2022-10-17T17:58:59.516Z,6.25
2022-10-17T18:01:30.834Z,4.78
2022-10-17T18:03:59.022Z,7.32
2022-10-17T18:06:27.733Z,4.88
2022-10-17T18:08:57.986Z,5.65
2022-10-17T18:11:27.095Z,6.57
2022-10-17T18:14:00.150Z,5.72
2022-10-17T18:16:28.570Z,4.00
2022-10-17T18:18:55.555Z,5.13
2022-10-17T18:21:22.466Z,5.85
2022-10-17T18:23:50.349Z,4.95
2022-10-17T18:26:17.503Z,4.85
2022-10-17T18:28:44.873Z,3.40
2022-10-17T18:31:15.472Z,4.63
2022-10-17T18:33:45.338Z,3.55
2022-10-17T18:36:14.562Z,4.50
2022-10-17T18:38:41.975Z,3.20
2022-10-17T18:41:16.684Z,3.53
2022-10-17T18:43:45.536Z,4.72
2022-10-17T18:46:23.489Z,4.15
2022-10-17T18:48:51.143Z,4.00
2022-10-17T18:51:21.682Z,4.65
2022-10-17T18:53:52.005Z,6.53
2022-10-17T18:56:20.266Z,5.60
2022-10-17T18:58:47.275Z,3.38
2022-10-17T19:01:18.043Z,3.33
2022-10-17T19:03:47.443Z,5.13
2022-10-17T19:06:20.778Z,2.80
2022-10-17T19:08:48.084Z,4.90
2022-10-17T19:11:19.180Z,6.30
2022-10-17T19:13:46.974Z,3.00
2022-10-17T19:16:19.308Z,4.75
2022-10-17T19:18:59.140Z,3.38
2022-10-17T19:21:26.492Z,3.65
2022-10-17T19:23:58.843Z,3.60
2022-10-17T19:26:29.362Z,5.38
2022-10-17T19:28:56.952Z,3.53
2022-10-17T19:31:27.251Z,4.18
2022-10-17T19:33:55.986Z,2.58
2022-10-17T19:36:30.422Z,3.90
2022-10-17T19:39:03.825Z,2.88
2022-10-17T19:41:30.763Z,4.38
2022-10-17T19:43:59.708Z,3.10
2022-10-17T19:46:28.602Z,3.70
2022-10-17T19:48:55.922Z,2.97
2022-10-17T19:51:25.039Z,4.18
2022-10-17T19:53:53.956Z,3.47
2022-10-17T19:56:22.802Z,2.42
2022-10-17T19:58:50.614Z,4.60
2022-10-17T20:01:24.461Z,2.80
2022-10-17T20:03:52.223Z,3.42
2022-10-17T20:06:19.488Z,2.75
2022-10-17T20:08:46.236Z,3.30
2022-10-17T20:11:24.671Z,4.88
2022-10-17T20:13:52.918Z,2.50
2022-10-17T20:16:23.484Z,5.60
2022-10-17T20:18:55.508Z,2.70
2022-10-17T20:21:27.306Z,1.80
2022-10-17T20:26:37.119Z,1.70
2022-10-17T20:29:17.743Z,4.45
2022-10-17T20:31:46.234Z,4.65
2022-10-17T20:34:15.664Z,3.33
2022-10-17T20:36:43.297Z,5.55
2022-10-17T20:39:13.353Z,5.35
2022-10-17T20:41:41.091Z,3.50
2022-10-17T20:44:08.250Z,2.85
2022-10-17T20:46:37.841Z,2.85
2022-10-17T20:49:13.605Z,2.88
2022-10-17T20:51:40.546Z,3.17
2022-10-17T20:54:07.247Z,3.30
2022-10-17T20:56:35.077Z,4.60
2022-10-17T20:59:05.801Z,4.20
2022-10-17T21:01:35.208Z,3.65
2022-10-17T21:04:21.374Z,2.95
2022-10-17T21:06:51.248Z,2.10
2022-10-17T21:09:18.436Z,2.78
2022-10-17T21:11:45.227Z,3.60
2022-10-17T21:14:12.582Z,5.65
2022-10-17T21:16:41.155Z,1.67
2022-10-17T21:19:09.072Z,2.28
2022-10-17T21:21:40.283Z,5.78
2022-10-17T21:24:14.255Z,2.53
2022-10-17T21:26:42.623Z,1.70
2022-10-17T21:29:12.038Z,2.63
2022-10-17T21:31:41.664Z,4.65
2022-10-17T21:34:24.436Z,2.28
2022-10-17T21:36:51.919Z,3.50
2022-10-17T21:39:18.918Z,4.00
2022-10-17T21:41:45.887Z,1.83
2022-10-17T21:44:18.865Z,2.78
2022-10-17T21:46:46.804Z,3.72
2022-10-17T21:49:16.675Z,4.85
2022-10-17T21:51:44.634Z,2.50
2022-10-17T21:54:11.640Z,2.10
2022-10-17T21:56:38.350Z,2.67
2022-10-17T21:59:05.483Z,2.38
2022-10-17T22:01:39.531Z,3.63
2022-10-17T22:04:10.831Z,2.55
2022-10-17T22:06:41.074Z,3.50
2022-10-17T22:09:22.893Z,4.05
2022-10-17T22:11:53.597Z,2.85
2022-10-17T22:14:22.900Z,4.13
2022-10-17T22:16:50.005Z,3.67
2022-10-17T22:19:24.855Z,8.05
2022-10-17T22:21:52.132Z,3.90
2022-10-17T22:26:48.733Z,3.60
2022-10-17T22:29:15.827Z,3.75
2022-10-17T22:31:42.964Z,3.83
2022-10-17T22:34:12.616Z,3.25
2022-10-17T22:36:39.373Z,4.88
2022-10-17T22:39:06.216Z,3.75
2022-10-17T22:41:33.126Z,4.57
2022-10-17T22:43:59.930Z,3.65
2022-10-17T22:46:26.874Z,5.68
2022-10-17T22:48:53.999Z,3.00
2022-10-17T22:51:20.831Z,2.50
2022-10-17T22:53:47.604Z,5.32
2022-10-17T22:56:19.844Z,3.00
2022-10-17T22:58:47.037Z,2.97
2022-10-17T23:01:21.522Z,4.85
2022-10-17T23:03:48.924Z,3.22
2022-10-17T23:06:15.995Z,4.85
2022-10-17T23:08:43.250Z,3.72
2022-10-17T23:11:10.245Z,4.32
2022-10-17T23:13:37.607Z,2.45
2022-10-17T23:16:04.751Z,3.10
2022-10-17T23:21:03.350Z,5.75
2022-10-17T23:23:30.056Z,3.83
2022-10-17T23:26:05.464Z,3.78
2022-10-17T23:28:33.542Z,6.28
2022-10-17T23:31:15.277Z,4.18
2022-10-17T23:33:44.700Z,5.63
2022-10-17T23:36:14.124Z,4.13
2022-10-17T23:38:42.520Z,4.93
2022-10-17T23:41:09.552Z,8.15
2022-10-17T23:43:36.327Z,6.78
2022-10-17T23:46:05.330Z,5.40
2022-10-17T23:48:32.151Z,6.25
2022-10-17T23:50:58.943Z,7.70
2022-10-17T23:53:26.279Z,8.25
2022-10-17T23:55:53.290Z,5.97
2022-10-17T23:58:20.041Z,7.68
